Terminal Aerodrome Forecast
Issued by NWS

Home | Current Version | Previous Version | Text Only | Print | Product List | Glossary On
Versions: 1 2 3 4 5 6 7 8 9 10 11 12 13 14 15 16 17 18 19 20 21 22 23 24 25 26 27 28 29 30 31 32 33 34 35 36 37 38 39 40 41 42 43
000
FTUS45 KSLC 251120
TAFLGU
TAF
KLGU 251120Z 2512/2612 15005KT P6SM OVC050
     FM251700 22005KT P6SM VCSH FEW035 BKN150 OVC250
     FM252300 VRB05KT P6SM -SHRA BKN025 OVC050
     FM260600 35012G18KT 5SM -SHRA BR BKN025 OVC050=

USA.gov is the U.S. government's official web portal to all federal, state and local government web resources and services.